ZSSS/SHA METAR and TAF weather

Enter ICAO airport designator
Station Type Date Time Source
ZSSS METAR 2022/12/08 13:30 UTC NOAA

ZSSS 081330Z 12003MPS CAVOK 14/10 Q1022 NOSIG


Station Type Date Time Source
ZSSS Decoded METAR 2022/12/08 13:30 UTC NOAA

Shanghai / Hongqiao, China (ZSSS) 31-10N 121-26E 3M
Dec 08, 2022 - 08:30 AM EST / 2022.12.08 1330 UTC
Wind: from the ESE (120 degrees) at 7 MPH (6 KT):0
Visibility: greater than 7 mile(s):0
Temperature: 57 F (14 C)
Dew Point: 50 F (10 C)
Relative Humidity: 76%
Pressure (altimeter): 30.18 in. Hg (1022 hPa)
ob: ZSSS 081330Z 12003MPS CAVOK 14/10 Q1022 NOSIG
cycle: 13

Station Type Date Time Source
ZSSS TAF 2022/12/08 12:03 UTC NOAA

TAF ZSSS 080908Z 0812/0912 06004MPS 6000 BKN020 TX15/0906Z TN11/0821Z

Example: see airport list